Time;durP1;ratioP1;P1;durP2;ratioP2;P2;SDS_P1;SDS_P2;PMS_P1;PMS_P2;Temp;Humidity;BMP_temperature;BMP_pressure;BME280_temperature;BME280_humidity;BME280_pressure;Samples;Min_cycle;Max_cycle;Signal;HPM_P1;HPM_P2
2023/10/15 00:01:58;;;;;;;20.20;3.80;;;;;;;17.57;57.51;98456.67;135912;1273;22591;-64
2023/10/15 00:05:01;;;;;;;27.00;4.20;;;;;;;17.53;57.41;98461.63;135949;1253;22534;-64
2023/10/15 00:08:04;;;;;;;17.20;3.50;;;;;;;17.54;57.59;98465.67;135953;1259;23502;-63
2023/10/15 00:11:06;;;;;;;21.90;3.80;;;;;;;17.58;57.34;98469.11;135972;1264;22544;-64
2023/10/15 00:14:09;;;;;;;20.30;3.70;;;;;;;17.65;57.17;98489.12;135983;1273;24206;-65
2023/10/15 00:17:11;;;;;;;;;;;;;;;17.46;57.58;98500.30;135955;1273;24470;-64
2023/10/15 00:20:16;;;;;;;20.20;3.60;;;;;;;17.43;57.56;98494.23;135979;1263;22546;-62
2023/10/15 00:23:19;;;;;;;18.00;3.60;;;;;;;17.25;58.13;98501.73;135871;1273;26297;-64
2023/10/15 00:26:21;;;;;;;15.90;3.50;;;;;;;17.18;58.21;98489.36;136000;1258;22527;-63
2023/10/15 00:29:24;;;;;;;;;;;;;;;17.09;58.33;98484.52;135992;1273;22501;-64
2023/10/15 00:32:29;;;;;;;22.80;4.30;;;;;;;17.09;58.20;98484.13;135919;1273;24023;-65
2023/10/15 00:35:34;;;;;;;20.50;3.60;;;;;;;17.10;57.98;98478.45;135969;1273;22531;-64
2023/10/15 00:38:37;;;;;;;17.80;3.90;;;;;;;17.07;57.95;98475.16;135987;1273;22536;-64
2023/10/15 00:41:45;;;;;;;20.70;4.00;;;;;;;17.05;57.66;98485.73;135928;1273;22546;-64
2023/10/15 00:44:48;;;;;;;16.40;3.80;;;;;;;17.10;57.46;98484.95;135915;1260;22633;-64
2023/10/15 00:47:53;;;;;;;21.00;4.00;;;;;;;17.04;57.41;98482.36;135965;1273;24464;-64
2023/10/15 00:50:55;;;;;;;18.10;3.70;;;;;;;16.87;57.61;98476.64;135948;1273;22536;-64
2023/10/15 00:53:58;;;;;;;17.10;3.50;;;;;;;16.81;57.59;98468.52;135954;1273;22651;-64
2023/10/15 00:57:25;;;;;;;22.20;4.10;;;;;;;16.77;57.40;98468.52;135950;1273;25223;-64
2023/10/15 01:00:49;;;;;;;17.70;3.80;;;;;;;16.73;57.61;98468.17;135917;1273;22513;-64
2023/10/15 01:03:53;;;;;;;20.60;4.60;;;;;;;16.74;57.47;98475.55;135938;1273;22531;-63
2023/10/15 01:07:00;;;;;;;18.40;4.00;;;;;;;16.81;57.33;98478.78;135924;1273;22521;-63
2023/10/15 01:10:03;;;;;;;21.30;4.30;;;;;;;16.91;57.16;98483.71;135955;1257;22546;-64
2023/10/15 01:13:15;;;;;;;17.20;4.10;;;;;;;16.79;57.38;98483.52;135945;1273;22536;-64
2023/10/15 01:16:18;;;;;;;21.90;4.50;;;;;;;16.62;58.05;98478.55;135962;1273;23115;-64
2023/10/15 01:19:31;;;;;;;20.20;4.60;;;;;;;16.64;58.11;98484.36;135962;1273;22533;-64
2023/10/15 01:22:33;;;;;;;;;;;;;;;16.66;58.09;98497.95;135962;1273;22525;-64
2023/10/15 01:25:45;;;;;;;14.90;3.40;;;;;;;16.64;58.24;98484.58;135921;1273;23306;-64
2023/10/15 01:28:48;;;;;;;18.70;3.90;;;;;;;16.76;57.79;98492.10;135926;1273;25397;-64
2023/10/15 01:31:52;;;;;;;17.60;3.70;;;;;;;16.73;57.85;98493.91;135940;1273;25415;-64
2023/10/15 01:34:58;;;;;;;17.20;3.40;;;;;;;16.75;57.54;98495.73;135986;1273;25239;-63
2023/10/15 01:38:09;;;;;;;22.00;3.80;;;;;;;16.67;57.67;98489.08;135935;1273;22542;-65
2023/10/15 01:41:13;;;;;;;25.40;4.50;;;;;;;16.69;57.44;98480.02;135902;1273;26614;-64
2023/10/15 01:44:19;;;;;;;20.30;4.10;;;;;;;16.59;57.56;98481.48;135933;1273;22518;-64
2023/10/15 01:47:28;;;;;;;20.40;3.90;;;;;;;16.49;57.68;98471.45;136001;1273;22527;-65
2023/10/15 01:50:33;;;;;;;20.90;3.90;;;;;;;16.46;57.75;98472.39;135947;1273;22571;-64
2023/10/15 01:53:37;;;;;;;19.00;3.70;;;;;;;16.56;57.30;98476.48;135942;1273;22520;-63
2023/10/15 01:56:40;;;;;;;19.20;4.10;;;;;;;16.62;56.84;98481.70;135932;1273;22537;-63
2023/10/15 01:59:45;;;;;;;;;;;;;;;16.56;56.91;98484.02;135980;1273;22513;-64
2023/10/15 02:02:48;;;;;;;18.20;3.90;;;;;;;16.46;57.29;98480.70;135923;1273;22550;-64
2023/10/15 02:05:54;;;;;;;17.90;4.00;;;;;;;16.24;58.00;98488.66;135943;1273;23598;-64
2023/10/15 02:08:56;;;;;;;21.00;4.10;;;;;;;16.28;57.91;98487.08;135942;1273;22520;-64
2023/10/15 02:11:59;;;;;;;22.00;4.20;;;;;;;16.26;57.75;98482.45;135940;1273;22531;-64
2023/10/15 02:15:14;;;;;;;;;;;;;;;16.34;57.58;98467.15;135959;1273;22510;-64
2023/10/15 02:18:17;;;;;;;19.30;3.60;;;;;;;16.30;57.53;98476.83;135920;1273;22531;-65
2023/10/15 02:21:20;;;;;;;19.50;3.60;;;;;;;16.18;58.05;98482.36;135954;1273;22524;-65
2023/10/15 02:24:23;;;;;;;;;;;;;;;16.20;58.01;98488.13;135985;1273;25479;-63
2023/10/15 02:27:30;;;;;;;21.90;4.20;;;;;;;16.07;58.18;98492.00;135991;1273;24278;-65
2023/10/15 02:30:32;;;;;;;18.50;4.30;;;;;;;16.02;58.52;98490.64;135919;1273;22647;-65
2023/10/15 02:33:35;;;;;;;22.70;4.50;;;;;;;15.89;58.97;98494.36;135932;1273;22555;-64
2023/10/15 02:36:37;;;;;;;20.80;4.60;;;;;;;15.88;59.21;98492.74;135956;1273;22712;-64
2023/10/15 02:39:44;;;;;;;21.30;4.50;;;;;;;15.92;58.73;98484.82;135952;1273;22536;-66
2023/10/15 02:42:54;;;;;;;17.80;3.30;;;;;;;15.86;58.86;98487.65;135969;1273;24049;-64
2023/10/15 02:46:00;;;;;;;21.30;4.20;;;;;;;15.83;58.98;98481.35;135913;1273;22524;-64
2023/10/15 02:49:07;;;;;;;21.50;4.00;;;;;;;15.87;58.67;98470.48;135915;1273;22639;-63
2023/10/15 02:52:18;;;;;;;19.80;4.10;;;;;;;15.76;58.96;98477.05;135869;1273;22534;-63
2023/10/15 02:55:26;;;;;;;16.40;3.60;;;;;;;15.70;58.96;98485.67;135859;1273;22532;-62
2023/10/15 02:58:29;;;;;;;22.60;4.70;;;;;;;15.58;59.31;98484.09;135970;1273;22527;-64
2023/10/15 03:01:31;;;;;;;18.80;4.30;;;;;;;15.49;59.50;98486.61;135958;1273;22527;-64
2023/10/15 03:04:34;;;;;;;20.50;5.30;;;;;;;15.55;58.93;98492.56;135936;1273;22626;-64
2023/10/15 03:07:38;;;;;;;;;;;;;;;15.62;58.63;98492.36;135974;1273;22543;-63
2023/10/15 03:10:55;;;;;;;22.10;4.30;;;;;;;15.63;58.46;98482.42;135944;1273;22543;-63
2023/10/15 03:14:00;;;;;;;20.40;3.70;;;;;;;15.43;58.83;98490.05;135926;1273;22540;-64
2023/10/15 03:17:03;;;;;;;23.50;5.20;;;;;;;15.45;58.42;98482.84;135987;1273;22543;-64
2023/10/15 03:20:12;;;;;;;;;;;;;;;15.39;58.30;98492.93;135945;1273;22505;-64
2023/10/15 03:23:16;;;;;;;18.70;3.60;;;;;;;15.23;58.58;98503.54;135926;1273;22537;-60
2023/10/15 03:26:18;;;;;;;16.40;3.40;;;;;;;15.18;58.59;98512.83;135933;1273;22524;-63
2023/10/15 03:29:23;;;;;;;;;;;;;;;15.10;58.68;98512.98;135986;1273;22504;-64
2023/10/15 03:32:31;;;;;;;20.30;4.00;;;;;;;15.11;58.53;98513.81;135948;1273;22544;-62
2023/10/15 03:35:37;;;;;;;20.30;3.70;;;;;;;15.01;58.65;98514.77;135957;1273;22654;-62
2023/10/15 03:38:39;;;;;;;20.60;4.60;;;;;;;14.96;58.60;98513.66;135907;1273;22528;-64
2023/10/15 03:41:42;;;;;;;21.20;3.60;;;;;;;14.92;58.65;98518.37;135895;1273;22535;-64
2023/10/15 03:44:47;;;;;;;20.10;4.00;;;;;;;14.86;58.55;98523.21;135908;1273;22527;-64
2023/10/15 03:47:49;;;;;;;21.30;3.80;;;;;;;14.87;58.31;98527.89;135917;1273;22534;-63
2023/10/15 03:50:57;;;;;;;16.00;3.40;;;;;;;14.73;58.42;98529.95;135978;1256;24378;-60
2023/10/15 03:54:06;;;;;;;18.50;3.80;;;;;;;14.75;58.29;98533.66;135890;1273;25405;-63
2023/10/15 03:57:09;;;;;;;19.30;3.50;;;;;;;14.68;58.31;98527.61;135954;1273;22605;-62
2023/10/15 04:00:15;;;;;;;17.70;3.40;;;;;;;14.63;58.27;98530.12;135908;1273;22546;-63
2023/10/15 04:03:23;;;;;;;21.40;3.70;;;;;;;14.63;58.07;98530.11;135976;1273;26486;-62
2023/10/15 04:06:25;;;;;;;20.40;3.60;;;;;;;14.59;57.99;98523.86;135976;1273;22517;-61
2023/10/15 04:09:31;;;;;;;20.00;3.80;;;;;;;14.47;58.08;98514.85;135917;1273;22524;-63
2023/10/15 04:12:35;;;;;;;19.90;3.80;;;;;;;14.71;57.06;98510.41;135957;1273;22538;-61
2023/10/15 04:15:37;;;;;;;14.90;3.10;;;;;;;14.65;56.86;98521.67;135926;1273;22535;-62
2023/10/15 04:18:40;;;;;;;19.50;3.50;;;;;;;14.60;56.93;98519.58;135962;1273;22556;-59
2023/10/15 04:21:43;;;;;;;16.20;3.80;;;;;;;14.63;56.60;98520.42;135936;1257;22542;-60
2023/10/15 04:24:46;;;;;;;15.00;3.20;;;;;;;14.49;56.66;98525.55;135958;1273;25481;-61
2023/10/15 04:27:49;;;;;;;16.90;3.90;;;;;;;14.41;56.66;98525.30;135922;1273;25436;-63
2023/10/15 04:30:51;;;;;;;21.00;3.80;;;;;;;14.24;56.81;98521.23;135939;1273;22523;-64
2023/10/15 04:33:54;;;;;;;19.70;4.40;;;;;;;14.19;56.75;98526.38;135924;1273;22530;-62
2023/10/15 04:36:59;;;;;;;19.10;3.10;;;;;;;14.12;57.14;98526.83;135918;1273;22560;-60
2023/10/15 04:40:04;;;;;;;20.20;3.50;;;;;;;14.19;56.59;98530.80;135933;1273;25631;-63
2023/10/15 04:43:07;;;;;;;18.20;3.60;;;;;;;14.01;56.87;98536.81;135959;1273;25386;-64
2023/10/15 04:46:11;;;;;;;26.00;3.60;;;;;;;13.91;57.21;98542.85;135976;1273;23124;-59
2023/10/15 04:49:17;;;;;;;20.50;3.20;;;;;;;13.79;57.61;98548.70;135954;1273;22524;-62
2023/10/15 04:52:22;;;;;;;16.70;3.60;;;;;;;13.80;57.54;98546.04;135835;1259;22538;-63
2023/10/15 04:55:26;;;;;;;15.00;3.30;;;;;;;13.89;56.95;98539.52;135901;1273;22531;-58
2023/10/15 04:58:29;;;;;;;17.70;3.30;;;;;;;13.92;56.68;98542.49;135901;1273;22528;-60
2023/10/15 05:01:31;;;;;;;;;;;;;;;13.84;56.57;98549.52;135930;1273;22524;-58
2023/10/15 05:04:33;;;;;;;20.40;3.20;;;;;;;13.69;56.98;98549.81;135840;1273;25242;-63
2023/10/15 05:07:36;;;;;;;19.90;3.40;;;;;;;13.67;56.70;98558.83;135929;1273;22530;-62
2023/10/15 05:10:44;;;;;;;18.20;3.20;;;;;;;13.66;56.88;98566.96;135954;1273;22528;-64
2023/10/15 05:13:47;;;;;;;17.30;2.90;;;;;;;13.73;56.48;98568.85;135891;1273;22630;-64
2023/10/15 05:16:49;;;;;;;18.20;3.10;;;;;;;13.79;56.15;98574.02;135971;1255;24334;-63
2023/10/15 05:19:52;;;;;;;19.40;3.00;;;;;;;13.73;56.41;98577.85;135918;1273;22528;-65
2023/10/15 05:22:56;;;;;;;21.20;3.40;;;;;;;13.67;56.58;98580.90;135935;1273;22546;-63
2023/10/15 05:25:58;;;;;;;23.30;3.50;;;;;;;13.76;56.40;98585.17;135948;1273;22533;-63
2023/10/15 05:29:01;;;;;;;23.50;3.90;;;;;;;13.64;56.44;98591.14;135937;1273;25344;-64
2023/10/15 05:32:03;;;;;;;;;;;;;;;13.62;56.48;98593.95;135910;1273;22575;-63
2023/10/15 05:35:08;;;;;;;23.00;3.40;;;;;;;13.56;56.57;98592.49;135888;1273;24522;-65
2023/10/15 05:38:10;;;;;;;14.00;2.80;;;;;;;13.54;56.60;98600.60;135834;1273;159896;-64
2023/10/15 05:41:12;;;;;;;14.40;2.50;;;;;;;13.62;56.13;98596.46;135967;1273;22519;-61
2023/10/15 05:44:18;;;;;;;16.70;3.20;;;;;;;13.67;56.05;98595.56;135958;1273;22538;-62
2023/10/15 05:47:20;;;;;;;14.30;2.70;;;;;;;13.72;55.88;98595.29;135942;1273;25487;-64
2023/10/15 05:50:23;;;;;;;17.70;2.90;;;;;;;13.78;55.74;98596.58;135936;1273;22538;-64
2023/10/15 05:53:26;;;;;;;16.30;3.10;;;;;;;13.68;55.75;98611.63;135931;1273;22666;-64
2023/10/15 05:56:29;;;;;;;19.90;3.30;;;;;;;13.73;55.67;98609.47;135957;1273;22536;-64
2023/10/15 05:59:31;;;;;;;18.70;3.20;;;;;;;13.78;55.73;98615.08;135973;1273;22538;-63
2023/10/15 06:02:34;;;;;;;18.40;3.20;;;;;;;13.82;55.71;98616.89;135996;1273;24404;-63
2023/10/15 06:05:36;;;;;;;;;;;;;;;14.01;55.31;98617.61;135952;1273;23098;-65
2023/10/15 06:08:39;;;;;;;16.20;3.00;;;;;;;14.06;55.06;98619.91;135962;1273;22524;-64
2023/10/15 06:11:42;;;;;;;15.80;2.90;;;;;;;14.09;55.23;98618.13;135943;1273;22554;-62
2023/10/15 06:14:44;;;;;;;14.60;2.60;;;;;;;14.10;55.35;98617.00;135986;1273;22530;-62
2023/10/15 06:17:46;;;;;;;15.40;2.90;;;;;;;14.28;54.99;98616.08;135949;1273;22628;-64
2023/10/15 06:20:49;;;;;;;19.60;3.50;;;;;;;14.34;54.83;98622.25;135918;1273;22524;-64
2023/10/15 06:23:52;;;;;;;14.70;2.90;;;;;;;14.36;54.53;98627.89;135934;1273;23114;-64
2023/10/15 06:26:54;;;;;;;17.20;3.00;;;;;;;14.41;54.33;98626.34;135914;1273;22549;-65
2023/10/15 06:29:57;;;;;;;15.30;3.20;;;;;;;14.51;54.24;98622.80;135946;1273;25421;-63
2023/10/15 06:32:59;;;;;;;19.20;3.10;;;;;;;14.59;53.94;98625.92;135890;1273;22548;-62
2023/10/15 06:36:01;;;;;;;19.70;2.90;;;;;;;14.58;53.82;98630.77;135939;1273;22537;-65
2023/10/15 06:39:04;;;;;;;17.40;2.90;;;;;;;14.62;53.56;98631.13;135994;1273;22542;-64
2023/10/15 06:42:06;;;;;;;18.80;3.20;;;;;;;14.61;53.17;98641.41;135943;1268;22524;-64
2023/10/15 06:45:11;;;;;;;13.80;2.60;;;;;;;14.68;53.21;98633.98;135967;1273;22536;-64
2023/10/15 06:48:13;;;;;;;16.80;3.80;;;;;;;14.91;53.13;98636.39;135932;1273;22524;-65
2023/10/15 06:51:17;;;;;;;17.90;2.80;;;;;;;14.89;52.48;98644.30;135957;1273;23706;-65
2023/10/15 06:54:20;;;;;;;21.60;3.00;;;;;;;14.92;52.23;98644.41;135918;1273;22555;-63
2023/10/15 06:57:23;;;;;;;15.50;2.10;;;;;;;14.91;52.52;98641.30;135977;1273;22526;-65
2023/10/15 07:00:26;;;;;;;15.00;2.50;;;;;;;14.88;52.00;98649.34;135989;1273;22527;-63
2023/10/15 07:03:28;;;;;;;;;;;;;;;14.98;51.76;98637.55;135937;1273;22520;-64
2023/10/15 07:06:31;;;;;;;16.60;3.00;;;;;;;15.02;51.36;98649.04;135882;1273;22949;-64
2023/10/15 07:09:35;;;;;;;16.50;2.50;;;;;;;15.11;51.78;98646.91;135949;1273;22541;-64
2023/10/15 07:12:37;;;;;;;18.10;2.50;;;;;;;15.25;51.06;98642.04;135894;1273;25232;-64
2023/10/15 07:15:40;;;;;;;19.90;2.60;;;;;;;15.23;50.57;98644.46;135946;1273;22530;-64
2023/10/15 07:18:43;;;;;;;18.10;3.40;;;;;;;15.09;50.63;98653.26;135965;1273;25397;-64
2023/10/15 07:21:45;;;;;;;15.50;2.60;;;;;;;15.16;50.46;98644.92;135956;1273;22548;-64
2023/10/15 07:24:47;;;;;;;14.40;2.50;;;;;;;15.02;50.23;98644.42;135949;1273;22525;-64
2023/10/15 07:27:50;;;;;;;17.30;2.80;;;;;;;15.13;50.49;98642.17;135950;1258;22543;-64
2023/10/15 07:30:52;;;;;;;15.10;2.20;;;;;;;15.42;49.87;98648.95;135950;1251;24212;-64
2023/10/15 07:33:55;;;;;;;16.40;2.70;;;;;;;15.58;49.79;98644.77;135923;1273;23719;-61
2023/10/15 07:36:57;;;;;;;18.20;2.80;;;;;;;15.63;49.70;98649.64;135956;1273;25414;-64
2023/10/15 07:40:00;;;;;;;15.90;2.60;;;;;;;15.78;48.68;98657.05;135929;1273;22654;-62
2023/10/15 07:43:03;;;;;;;17.90;2.60;;;;;;;15.72;47.90;98659.27;135981;1273;22538;-63
2023/10/15 07:46:05;;;;;;;20.10;3.20;;;;;;;15.71;48.06;98661.86;135945;1273;22543;-63
2023/10/15 07:49:08;;;;;;;19.90;2.90;;;;;;;15.83;48.49;98645.99;135936;1273;22568;-64
2023/10/15 07:52:10;;;;;;;15.50;2.30;;;;;;;16.01;48.29;98644.69;135924;1273;22541;-62
2023/10/15 07:55:13;;;;;;;18.50;3.00;;;;;;;16.12;47.52;98652.05;135912;1273;22553;-65
2023/10/15 07:58:15;;;;;;;19.70;2.60;;;;;;;16.16;47.28;98649.85;135980;1273;22529;-65
2023/10/15 08:01:18;;;;;;;20.30;3.00;;;;;;;16.18;46.93;98647.80;135924;1273;22527;-65
2023/10/15 08:04:20;;;;;;;17.00;2.80;;;;;;;16.15;46.20;98647.17;135901;1273;22525;-64
2023/10/15 08:07:23;;;;;;;18.00;2.90;;;;;;;16.17;45.34;98639.23;135877;1273;22536;-64
2023/10/15 08:10:31;;;;;;;16.80;2.50;;;;;;;16.33;45.96;98639.62;135926;1273;22520;-64
2023/10/15 08:13:34;;;;;;;17.20;2.50;;;;;;;16.13;45.59;98654.77;135898;1273;23146;-65
2023/10/15 08:16:37;;;;;;;;;;;;;;;16.34;46.36;98642.71;135941;1270;24262;-64
2023/10/15 08:19:40;;;;;;;17.50;2.50;;;;;;;16.35;44.76;98642.61;135930;1273;22531;-65
2023/10/15 08:22:44;;;;;;;21.60;2.60;;;;;;;16.65;45.29;98634.17;135944;1273;22527;-64
2023/10/15 08:25:48;;;;;;;18.10;2.60;;;;;;;16.50;43.83;98645.02;135895;1273;25437;-64
2023/10/15 08:28:50;;;;;;;16.90;2.80;;;;;;;16.31;44.89;98639.73;135918;1273;22533;-65
2023/10/15 08:31:53;;;;;;;19.50;2.90;;;;;;;16.61;43.63;98644.35;135939;1273;22523;-66
2023/10/15 08:34:55;;;;;;;;;;;;;;;16.46;42.98;98641.66;136013;1273;22540;-65
2023/10/15 08:38:00;;;;;;;16.90;2.60;;;;;;;16.29;43.12;98642.29;135929;1273;22662;-66
2023/10/15 08:41:02;;;;;;;19.00;3.00;;;;;;;16.33;43.71;98642.21;135968;1273;22527;-63
2023/10/15 08:44:07;;;;;;;20.00;2.60;;;;;;;16.14;43.17;98654.67;135907;1273;22526;-64
2023/10/15 08:47:10;;;;;;;18.60;2.80;;;;;;;16.31;43.60;98650.20;135929;1273;22535;-64
2023/10/15 08:50:12;;;;;;;;;;;;;;;16.72;42.45;98646.96;135954;1273;22620;-63
2023/10/15 08:53:15;;;;;;;14.90;2.40;;;;;;;16.77;42.16;98652.90;135965;1273;22523;-64
2023/10/15 08:56:17;;;;;;;17.30;2.70;;;;;;;16.51;42.28;98654.58;135920;1273;22524;-64
2023/10/15 08:59:20;;;;;;;15.70;2.60;;;;;;;16.37;42.91;98652.48;135875;1273;25240;-64
2023/10/15 09:02:22;;;;;;;15.10;2.60;;;;;;;16.58;42.99;98659.14;135849;1273;22527;-64
2023/10/15 09:05:25;;;;;;;20.50;2.80;;;;;;;16.87;42.03;98652.11;135867;1273;25115;-64
2023/10/15 09:08:28;;;;;;;17.90;2.70;;;;;;;16.98;42.03;98645.74;135926;1273;22543;-63
2023/10/15 09:11:31;;;;;;;14.50;2.60;;;;;;;16.71;41.37;98650.91;135944;1273;22554;-64
2023/10/15 09:14:33;;;;;;;20.00;2.80;;;;;;;16.48;41.17;98645.56;135875;1273;22543;-61
2023/10/15 09:17:37;;;;;;;20.90;3.00;;;;;;;16.24;40.86;98648.50;135965;1273;22706;-59
2023/10/15 09:20:40;;;;;;;18.80;2.30;;;;;;;16.48;42.06;98639.38;135977;1273;22634;-63
2023/10/15 09:23:42;;;;;;;17.60;2.70;;;;;;;16.78;41.43;98641.28;135894;1273;22460;-62
2023/10/15 09:26:45;;;;;;;18.20;2.60;;;;;;;16.92;41.70;98640.09;135974;1273;25239;-61
2023/10/15 09:29:47;;;;;;;20.10;3.00;;;;;;;16.90;40.93;98643.63;135925;1273;22534;-61
2023/10/15 09:32:49;;;;;;;15.50;2.40;;;;;;;17.17;41.09;98636.55;135918;1273;22534;-61
2023/10/15 09:35:52;;;;;;;17.90;2.50;;;;;;;16.94;40.43;98650.31;135917;1273;22650;-61
2023/10/15 09:38:56;;;;;;;15.30;2.20;;;;;;;16.71;40.38;98653.56;135937;1273;25424;-63
2023/10/15 09:42:02;;;;;;;16.40;2.60;;;;;;;16.60;41.22;98644.98;135980;1273;22538;-62
2023/10/15 09:45:05;;;;;;;21.50;3.00;;;;;;;16.52;41.29;98639.34;135951;1273;22678;-64
2023/10/15 09:48:09;;;;;;;15.10;2.10;;;;;;;16.49;40.71;98637.71;135899;1273;22545;-63
2023/10/15 09:51:11;;;;;;;13.90;2.10;;;;;;;16.52;40.38;98635.49;135864;1273;22535;-63
2023/10/15 09:54:14;;;;;;;;;;;;;;;16.69;41.48;98623.23;135903;1273;22984;-63
2023/10/15 09:57:17;;;;;;;15.00;2.30;;;;;;;16.69;40.48;98629.04;135952;1273;22563;-65
2023/10/15 10:00:32;;;;;;;17.50;2.20;;;;;;;16.43;39.05;98636.98;135992;1273;22520;-63
2023/10/15 10:03:37;;;;;;;12.90;2.00;;;;;;;16.29;39.06;98645.29;135839;1273;22534;-62
2023/10/15 10:06:39;;;;;;;16.00;2.60;;;;;;;16.13;39.30;98644.01;135875;1273;22535;-60
2023/10/15 10:09:42;;;;;;;;;;;;;;;16.09;39.21;98643.95;135918;1273;22524;-58
2023/10/15 10:12:44;;;;;;;13.80;2.00;;;;;;;16.48;40.76;98635.29;135920;1271;22545;-60
2023/10/15 10:15:52;;;;;;;;;;;;;;;16.67;40.20;98645.46;135899;1273;22515;-63
2023/10/15 10:18:55;;;;;;;13.50;2.10;;;;;;;16.84;39.49;98631.63;135907;1273;22561;-61
2023/10/15 10:21:58;;;;;;;13.80;2.00;;;;;;;17.01;39.16;98630.81;135926;1273;22544;-61
2023/10/15 10:25:00;;;;;;;12.40;2.00;;;;;;;16.72;38.13;98633.91;135949;1273;22541;-64
2023/10/15 10:28:03;;;;;;;;;;;;;;;16.45;38.23;98636.98;135978;1273;22635;-64
2023/10/15 10:31:07;;;;;;;16.00;2.20;;;;;;;16.49;39.49;98629.38;135910;1273;24262;-62
2023/10/15 10:34:09;;;;;;;15.30;2.50;;;;;;;16.84;39.06;98623.98;135942;1273;22527;-63
2023/10/15 10:37:11;;;;;;;16.20;2.60;;;;;;;16.86;38.69;98617.92;135963;1251;25478;-63
2023/10/15 10:40:17;;;;;;;16.00;2.80;;;;;;;16.81;39.02;98623.36;135934;1273;22536;-64
2023/10/15 10:43:19;;;;;;;16.30;2.60;;;;;;;16.92;39.43;98614.30;135883;1273;25412;-62
2023/10/15 10:46:22;;;;;;;;;;;;;;;16.57;39.50;98616.83;135909;1273;22513;-62
2023/10/15 10:49:25;;;;;;;20.00;2.50;;;;;;;16.61;39.55;98613.88;135928;1273;22543;-64
2023/10/15 10:52:27;;;;;;;20.10;2.60;;;;;;;17.13;40.06;98603.19;135915;1273;22519;-63
2023/10/15 10:55:33;;;;;;;16.90;2.70;;;;;;;17.46;38.90;98608.66;135935;1273;25252;-63
2023/10/15 10:58:35;;;;;;;17.80;2.70;;;;;;;17.62;38.23;98615.70;135956;1273;22517;-63
2023/10/15 11:01:39;;;;;;;15.00;2.00;;;;;;;17.58;39.09;98613.90;135912;1273;24433;-64
2023/10/15 11:04:41;;;;;;;15.90;2.80;;;;;;;17.50;37.91;98615.17;135968;1273;22528;-64
2023/10/15 11:07:46;;;;;;;15.80;2.20;;;;;;;17.30;38.29;98612.92;135886;1273;22795;-64
2023/10/15 11:10:48;;;;;;;12.90;1.70;;;;;;;16.75;38.74;98613.14;135894;1273;25408;-62
2023/10/15 11:13:51;;;;;;;;;;;;;;;16.47;39.38;98608.23;135957;1273;22634;-65
2023/10/15 11:16:54;;;;;;;13.00;2.10;;;;;;;16.55;39.87;98607.13;135965;1273;22534;-64
2023/10/15 11:19:57;;;;;;;16.30;2.30;;;;;;;16.81;39.81;98614.76;135940;1273;22530;-63
2023/10/15 11:23:01;;;;;;;15.80;2.40;;;;;;;16.74;39.27;98610.56;135939;1273;22629;-65
2023/10/15 11:26:03;;;;;;;15.40;2.60;;;;;;;16.86;40.02;98604.02;135904;1273;22566;-64
2023/10/15 11:29:06;;;;;;;18.40;2.30;;;;;;;17.05;39.89;98606.05;135956;1273;22539;-64
2023/10/15 11:32:11;;;;;;;16.80;2.70;;;;;;;16.96;40.15;98603.90;135951;1273;22527;-64
2023/10/15 11:35:15;;;;;;;13.70;2.40;;;;;;;16.89;39.69;98599.04;135954;1273;25997;-64
2023/10/15 11:38:17;;;;;;;14.70;2.20;;;;;;;16.70;40.06;98595.05;135915;1273;22527;-64
2023/10/15 11:41:19;;;;;;;;;;;;;;;16.57;39.95;98600.05;135942;1273;22611;-65
2023/10/15 11:44:26;;;;;;;13.10;2.10;;;;;;;16.52;40.18;98591.02;135938;1273;22529;-64
2023/10/15 11:47:32;;;;;;;14.10;2.20;;;;;;;16.54;40.36;98585.55;135946;1273;22538;-64
2023/10/15 11:50:35;;;;;;;15.70;2.50;;;;;;;16.60;41.07;98579.02;135941;1273;22755;-64
2023/10/15 11:53:37;;;;;;;15.70;2.90;;;;;;;16.85;40.53;98585.56;135920;1273;24377;-64
2023/10/15 11:56:41;;;;;;;14.90;2.30;;;;;;;17.48;40.28;98585.53;135911;1255;22523;-65
2023/10/15 11:59:45;;;;;;;15.40;2.30;;;;;;;17.63;39.72;98587.09;135897;1273;22575;-66
2023/10/15 12:02:47;;;;;;;15.60;2.40;;;;;;;17.36;40.03;98586.40;135916;1273;22543;-63
2023/10/15 12:05:51;;;;;;;;;;;;;;;17.27;39.83;98585.16;135904;1273;22510;-64
2023/10/15 12:08:58;;;;;;;16.10;2.70;;;;;;;17.07;38.66;98596.00;135957;1273;22527;-64
2023/10/15 12:12:00;;;;;;;12.80;2.00;;;;;;;16.86;38.64;98589.41;135956;1273;25322;-64
2023/10/15 12:15:04;;;;;;;17.30;2.60;;;;;;;16.70;39.36;98580.09;135914;1273;22533;-65
2023/10/15 12:18:06;;;;;;;17.20;2.50;;;;;;;16.77;39.94;98592.49;135957;1273;22530;-64
2023/10/15 12:21:09;;;;;;;11.80;2.10;;;;;;;16.70;39.78;98592.05;135904;1273;22737;-64
2023/10/15 12:24:13;;;;;;;9.60;1.80;;;;;;;16.68;39.77;98586.42;135851;1273;24283;-63
2023/10/15 12:27:16;;;;;;;16.50;2.50;;;;;;;16.82;39.20;98582.14;135932;1273;26465;-62
2023/10/15 12:30:23;;;;;;;13.50;2.20;;;;;;;16.75;39.43;98580.81;135903;1273;22512;-65
2023/10/15 12:33:25;;;;;;;14.10;2.40;;;;;;;16.88;39.39;98583.76;135957;1273;22531;-64
2023/10/15 12:36:29;;;;;;;;;;;;;;;16.88;38.93;98582.33;135929;1273;22514;-62
2023/10/15 12:39:31;;;;;;;13.00;2.30;;;;;;;17.05;39.42;98582.57;135902;1273;22516;-64
2023/10/15 12:42:34;;;;;;;;;;;;;;;17.20;39.94;98573.02;136034;1273;22509;-64
2023/10/15 12:45:36;;;;;;;12.90;1.80;;;;;;;17.67;39.39;98565.14;135979;1273;22554;-64
2023/10/15 12:48:39;;;;;;;12.40;2.00;;;;;;;17.93;38.18;98565.22;135904;1273;25245;-62
2023/10/15 12:51:41;;;;;;;;;;;;;;;17.44;38.05;98568.17;135923;1273;23740;-64
2023/10/15 12:54:44;;;;;;;10.40;2.00;;;;;;;17.16;38.86;98565.48;135945;1273;22546;-65
2023/10/15 12:57:47;;;;;;;17.90;2.20;;;;;;;16.90;38.73;98571.02;135933;1273;22540;-64
2023/10/15 13:00:51;;;;;;;13.60;2.50;;;;;;;17.10;39.05;98574.66;135903;1273;25390;-64
2023/10/15 13:03:54;;;;;;;12.80;2.10;;;;;;;17.30;38.20;98570.02;135958;1273;24040;-61
2023/10/15 13:06:56;;;;;;;8.50;1.60;;;;;;;17.21;38.11;98566.95;135967;1273;22532;-63
2023/10/15 13:09:59;;;;;;;;;;;;;;;17.03;38.69;98571.59;135967;1273;23011;-64
2023/10/15 13:13:01;;;;;;;14.00;2.20;;;;;;;16.69;39.53;98569.74;135948;1273;22526;-63
2023/10/15 13:16:04;;;;;;;;;;;;;;;16.79;39.19;98570.00;135936;1273;24017;-62
2023/10/15 13:19:06;;;;;;;12.10;1.90;;;;;;;16.84;38.85;98576.97;135936;1273;22543;-64
2023/10/15 13:22:08;;;;;;;8.80;1.80;;;;;;;17.04;38.68;98576.32;135979;1273;22576;-64
2023/10/15 13:25:11;;;;;;;12.00;2.40;;;;;;;17.01;38.02;98578.35;135971;1257;22642;-64
2023/10/15 13:28:13;;;;;;;11.40;1.80;;;;;;;16.91;38.06;98574.08;135909;1251;22545;-63
2023/10/15 13:31:16;;;;;;;8.60;1.90;;;;;;;16.70;38.03;98577.74;135946;1254;22547;-64
2023/10/15 13:34:18;;;;;;;13.80;2.10;;;;;;;16.68;38.85;98573.20;135949;1273;22523;-65
2023/10/15 13:37:21;;;;;;;12.30;1.80;;;;;;;16.73;38.84;98572.92;135880;1273;22531;-64
2023/10/15 13:40:23;;;;;;;14.40;2.30;;;;;;;16.75;38.89;98566.52;135947;1273;24218;-64
2023/10/15 13:43:26;;;;;;;14.00;2.20;;;;;;;16.70;38.41;98575.27;136136;1273;22535;-65
2023/10/15 13:46:28;;;;;;;17.20;2.50;;;;;;;16.59;38.97;98568.52;135975;1273;22530;-65
2023/10/15 13:49:31;;;;;;;19.10;2.50;;;;;;;16.55;38.89;98565.27;135937;1273;22551;-64
2023/10/15 13:52:33;;;;;;;13.30;2.60;;;;;;;16.54;38.81;98558.14;135974;1273;22531;-65
2023/10/15 13:55:35;;;;;;;11.40;2.20;;;;;;;16.74;38.44;98558.98;135905;1273;22523;-63
2023/10/15 13:58:38;;;;;;;11.60;1.70;;;;;;;16.63;38.56;98564.39;135971;1273;22523;-64
2023/10/15 14:01:41;;;;;;;14.60;2.20;;;;;;;16.45;38.84;98567.27;135979;1273;22523;-63
2023/10/15 14:04:44;;;;;;;11.60;2.10;;;;;;;16.30;39.40;98569.45;135976;1273;22564;-64
2023/10/15 14:07:46;;;;;;;;;;;;;;;16.23;39.34;98571.32;135968;1258;22533;-64
2023/10/15 14:10:50;;;;;;;17.40;2.30;;;;;;;16.25;38.88;98569.23;135926;1255;22517;-64
2023/10/15 14:13:53;;;;;;;16.20;2.40;;;;;;;16.30;38.71;98570.50;135928;1273;22536;-65